sensor_id;sensor_type;location;lat;lon;timestamp;pressure;altitude;pressure_sealevel;temperature;humidity
49759;BME280;35654;46.080;11.118;2023-04-07T00:01:47;99442.81;;;9.69;41.11
49759;BME280;35654;46.080;11.118;2023-04-07T00:04:14;99440.34;;;9.73;40.86
49759;BME280;35654;46.080;11.118;2023-04-07T00:06:40;99442.50;;;9.76;40.94
49759;BME280;35654;46.080;11.118;2023-04-07T00:09:09;99442.75;;;9.74;40.82
49759;BME280;35654;46.080;11.118;2023-04-07T00:11:38;99425.59;;;9.69;40.79
49759;BME280;35654;46.080;11.118;2023-04-07T00:14:05;99429.50;;;9.63;41.11
49759;BME280;35654;46.080;11.118;2023-04-07T00:16:31;99425.66;;;9.64;41.74
49759;BME280;35654;46.080;11.118;2023-04-07T00:18:58;99424.56;;;9.65;41.66
49759;BME280;35654;46.080;11.118;2023-04-07T00:21:24;99423.97;;;9.68;41.83
49759;BME280;35654;46.080;11.118;2023-04-07T00:23:52;99419.34;;;9.68;41.90
49759;BME280;35654;46.080;11.118;2023-04-07T00:26:18;99421.25;;;9.68;42.90
49759;BME280;35654;46.080;11.118;2023-04-07T00:28:45;99421.88;;;9.60;43.21
49759;BME280;35654;46.080;11.118;2023-04-07T00:31:11;99414.25;;;9.57;43.73
49759;BME280;35654;46.080;11.118;2023-04-07T00:33:38;99419.00;;;9.46;43.90
49759;BME280;35654;46.080;11.118;2023-04-07T00:36:05;99408.13;;;9.36;43.40
49759;BME280;35654;46.080;11.118;2023-04-07T00:38:31;99411.97;;;9.35;43.05
49759;BME280;35654;46.080;11.118;2023-04-07T00:41:00;99416.63;;;9.34;43.50
49759;BME280;35654;46.080;11.118;2023-04-07T00:43:27;99416.38;;;9.31;43.86
49759;BME280;35654;46.080;11.118;2023-04-07T00:45:54;99407.66;;;9.29;44.27
49759;BME280;35654;46.080;11.118;2023-04-07T00:48:21;99404.97;;;9.24;44.66
49759;BME280;35654;46.080;11.118;2023-04-07T00:50:47;99410.66;;;9.27;44.83
49759;BME280;35654;46.080;11.118;2023-04-07T00:53:14;99407.13;;;9.22;44.91
49759;BME280;35654;46.080;11.118;2023-04-07T00:55:41;99402.44;;;9.27;44.97
49759;BME280;35654;46.080;11.118;2023-04-07T00:58:07;99401.06;;;9.30;44.15
49759;BME280;35654;46.080;11.118;2023-04-07T01:00:37;99399.66;;;9.32;43.55
49759;BME280;35654;46.080;11.118;2023-04-07T01:03:08;99404.56;;;9.35;43.43
49759;BME280;35654;46.080;11.118;2023-04-07T01:05:41;99395.28;;;9.36;43.46
49759;BME280;35654;46.080;11.118;2023-04-07T01:16:41;99386.63;;;9.24;43.70
49759;BME280;35654;46.080;11.118;2023-04-07T01:19:13;99389.66;;;9.23;43.56
49759;BME280;35654;46.080;11.118;2023-04-07T01:21:41;99390.19;;;9.25;43.15
49759;BME280;35654;46.080;11.118;2023-04-07T01:27:13;99389.63;;;9.28;42.98
49759;BME280;35654;46.080;11.118;2023-04-07T01:29:41;99386.06;;;9.27;42.94
49759;BME280;35654;46.080;11.118;2023-04-07T01:32:13;99386.63;;;9.24;43.72
49759;BME280;35654;46.080;11.118;2023-04-07T01:34:40;99383.09;;;9.24;43.99
49759;BME280;35654;46.080;11.118;2023-04-07T01:37:07;99383.38;;;9.22;44.15
49759;BME280;35654;46.080;11.118;2023-04-07T01:39:35;99387.50;;;9.20;44.13
49759;BME280;35654;46.080;11.118;2023-04-07T01:42:05;99385.34;;;9.17;44.45
49759;BME280;35654;46.080;11.118;2023-04-07T01:44:32;99388.09;;;9.12;44.38
49759;BME280;35654;46.080;11.118;2023-04-07T01:46:59;99385.13;;;9.08;44.50
49759;BME280;35654;46.080;11.118;2023-04-07T01:49:26;99382.13;;;9.05;44.30
49759;BME280;35654;46.080;11.118;2023-04-07T01:51:53;99386.50;;;9.06;44.23
49759;BME280;35654;46.080;11.118;2023-04-07T01:54:20;99380.75;;;9.07;44.82
49759;BME280;35654;46.080;11.118;2023-04-07T01:56:48;99378.06;;;9.02;45.16
49759;BME280;35654;46.080;11.118;2023-04-07T01:59:13;99376.16;;;9.03;45.11
49759;BME280;35654;46.080;11.118;2023-04-07T02:01:39;99370.69;;;9.03;44.78
49759;BME280;35654;46.080;11.118;2023-04-07T02:07:14;99384.59;;;9.06;45.28
49759;BME280;35654;46.080;11.118;2023-04-07T02:09:38;99375.66;;;8.96;45.62
49759;BME280;35654;46.080;11.118;2023-04-07T02:12:06;99371.25;;;9.00;44.69
49759;BME280;35654;46.080;11.118;2023-04-07T02:14:34;99370.22;;;8.96;44.76
49759;BME280;35654;46.080;11.118;2023-04-07T02:17:01;99372.59;;;9.02;44.58
49759;BME280;35654;46.080;11.118;2023-04-07T02:19:29;99374.50;;;9.07;44.56
49759;BME280;35654;46.080;11.118;2023-04-07T02:21:55;99368.53;;;9.00;44.87
49759;BME280;35654;46.080;11.118;2023-04-07T02:24:22;99369.66;;;8.94;45.48
49759;BME280;35654;46.080;11.118;2023-04-07T02:26:48;99371.09;;;8.86;45.48
49759;BME280;35654;46.080;11.118;2023-04-07T02:29:15;99367.50;;;8.91;45.19
49759;BME280;35654;46.080;11.118;2023-04-07T02:31:42;99361.47;;;8.94;45.25
49759;BME280;35654;46.080;11.118;2023-04-07T02:34:08;99364.44;;;8.97;44.87
49759;BME280;35654;46.080;11.118;2023-04-07T02:36:35;99354.03;;;8.99;44.82
49759;BME280;35654;46.080;11.118;2023-04-07T02:39:02;99366.34;;;8.97;44.84
49759;BME280;35654;46.080;11.118;2023-04-07T02:41:29;99362.00;;;8.96;45.08
49759;BME280;35654;46.080;11.118;2023-04-07T02:43:55;99365.34;;;8.88;45.21
49759;BME280;35654;46.080;11.118;2023-04-07T02:46:22;99363.50;;;8.78;45.98
49759;BME280;35654;46.080;11.118;2023-04-07T02:48:49;99369.59;;;8.60;46.23
49759;BME280;35654;46.080;11.118;2023-04-07T02:51:15;99366.91;;;8.55;46.27
49759;BME280;35654;46.080;11.118;2023-04-07T02:53:41;99371.50;;;8.64;46.49
49759;BME280;35654;46.080;11.118;2023-04-07T02:56:08;99364.94;;;8.65;46.56
49759;BME280;35654;46.080;11.118;2023-04-07T02:58:34;99367.16;;;8.58;46.70
49759;BME280;35654;46.080;11.118;2023-04-07T03:01:01;99367.47;;;8.52;46.75
49759;BME280;35654;46.080;11.118;2023-04-07T03:03:27;99362.56;;;8.54;46.80
49759;BME280;35654;46.080;11.118;2023-04-07T03:05:54;99361.75;;;8.53;46.65
49759;BME280;35654;46.080;11.118;2023-04-07T03:08:20;99362.84;;;8.52;46.78
49759;BME280;35654;46.080;11.118;2023-04-07T03:10:46;99366.94;;;8.50;46.95
49759;BME280;35654;46.080;11.118;2023-04-07T03:13:13;99358.53;;;8.41;47.43
49759;BME280;35654;46.080;11.118;2023-04-07T03:15:42;99368.72;;;8.20;48.52
49759;BME280;35654;46.080;11.118;2023-04-07T03:18:08;99362.22;;;8.06;48.09
49759;BME280;35654;46.080;11.118;2023-04-07T03:20:37;99362.44;;;8.10;48.36
49759;BME280;35654;46.080;11.118;2023-04-07T03:23:03;99357.28;;;8.08;48.91
49759;BME280;35654;46.080;11.118;2023-04-07T03:25:30;99364.38;;;8.14;48.54
49759;BME280;35654;46.080;11.118;2023-04-07T03:27:56;99362.16;;;8.16;48.79
49759;BME280;35654;46.080;11.118;2023-04-07T03:30:23;99361.59;;;8.19;48.76
49759;BME280;35654;46.080;11.118;2023-04-07T03:32:49;99363.81;;;8.17;48.67
49759;BME280;35654;46.080;11.118;2023-04-07T03:35:16;99362.16;;;8.16;49.03
49759;BME280;35654;46.080;11.118;2023-04-07T03:37:42;99358.63;;;8.16;48.79
49759;BME280;35654;46.080;11.118;2023-04-07T03:40:09;99362.19;;;8.11;49.18
49759;BME280;35654;46.080;11.118;2023-04-07T03:42:36;99351.56;;;8.05;49.03
49759;BME280;35654;46.080;11.118;2023-04-07T03:45:02;99354.28;;;8.05;48.80
49759;BME280;35654;46.080;11.118;2023-04-07T03:47:29;99355.41;;;8.04;48.46
49759;BME280;35654;46.080;11.118;2023-04-07T03:49:55;99353.47;;;8.04;48.46
49759;BME280;35654;46.080;11.118;2023-04-07T03:52:22;99359.22;;;8.03;49.38
49759;BME280;35654;46.080;11.118;2023-04-07T03:54:49;99358.44;;;7.97;50.25
49759;BME280;35654;46.080;11.118;2023-04-07T03:57:15;99361.97;;;7.93;50.68
49759;BME280;35654;46.080;11.118;2023-04-07T03:59:42;99357.09;;;7.90;50.93
49759;BME280;35654;46.080;11.118;2023-04-07T04:02:08;99365.25;;;7.85;51.03
49759;BME280;35654;46.080;11.118;2023-04-07T04:04:35;99367.47;;;7.83;51.50
49759;BME280;35654;46.080;11.118;2023-04-07T04:07:02;99365.56;;;7.78;51.32
49759;BME280;35654;46.080;11.118;2023-04-07T04:09:27;99363.41;;;7.75;50.19
49759;BME280;35654;46.080;11.118;2023-04-07T04:11:54;99364.22;;;7.71;49.93
49759;BME280;35654;46.080;11.118;2023-04-07T04:14:22;99351.94;;;7.68;50.06
49759;BME280;35654;46.080;11.118;2023-04-07T04:16:48;99361.50;;;7.66;50.49
49759;BME280;35654;46.080;11.118;2023-04-07T04:19:15;99357.44;;;7.58;50.83
49759;BME280;35654;46.080;11.118;2023-04-07T04:21:41;99366.16;;;7.55;50.83
49759;BME280;35654;46.080;11.118;2023-04-07T04:24:08;99363.97;;;7.52;49.98
49759;BME280;35654;46.080;11.118;2023-04-07T04:26:34;99364.81;;;7.47;49.29
49759;BME280;35654;46.080;11.118;2023-04-07T04:29:01;99359.91;;;7.44;49.68
49759;BME280;35654;46.080;11.118;2023-04-07T04:31:28;99367.28;;;7.34;50.39
49759;BME280;35654;46.080;11.118;2023-04-07T04:33:54;99365.13;;;7.31;51.40
49759;BME280;35654;46.080;11.118;2023-04-07T04:36:21;99371.13;;;7.23;52.37
49759;BME280;35654;46.080;11.118;2023-04-07T04:38:47;99370.56;;;7.11;52.49
49759;BME280;35654;46.080;11.118;2023-04-07T04:41:14;99373.00;;;7.02;52.88
49759;BME280;35654;46.080;11.118;2023-04-07T04:43:39;99368.38;;;6.97;53.14
49759;BME280;35654;46.080;11.118;2023-04-07T04:46:06;99370.56;;;7.00;52.55
49759;BME280;35654;46.080;11.118;2023-04-07T04:48:32;99374.09;;;7.06;53.06
49759;BME280;35654;46.080;11.118;2023-04-07T04:50:59;99369.75;;;7.05;53.11
49759;BME280;35654;46.080;11.118;2023-04-07T04:53:25;99373.53;;;7.04;52.99
49759;BME280;35654;46.080;11.118;2023-04-07T04:55:52;99378.44;;;7.02;52.23
49759;BME280;35654;46.080;11.118;2023-04-07T04:58:19;99378.44;;;7.02;52.66
49759;BME280;35654;46.080;11.118;2023-04-07T05:00:46;99383.59;;;7.03;53.22
49759;BME280;35654;46.080;11.118;2023-04-07T05:03:12;99380.34;;;6.96;54.09
49759;BME280;35654;46.080;11.118;2023-04-07T05:05:38;99380.34;;;6.96;54.07
49759;BME280;35654;46.080;11.118;2023-04-07T05:08:05;99387.16;;;6.99;53.84
49759;BME280;35654;46.080;11.118;2023-04-07T05:10:31;99388.50;;;7.01;53.64
49759;BME280;35654;46.080;11.118;2023-04-07T05:12:58;99390.94;;;6.98;53.78
49759;BME280;35654;46.080;11.118;2023-04-07T05:15:24;99396.41;;;6.93;53.74
49759;BME280;35654;46.080;11.118;2023-04-07T05:17:51;99395.31;;;6.99;53.09
49759;BME280;35654;46.080;11.118;2023-04-07T05:20:18;99403.19;;;6.95;53.88
49759;BME280;35654;46.080;11.118;2023-04-07T05:22:44;99404.03;;;6.86;53.65
49759;BME280;35654;46.080;11.118;2023-04-07T05:25:11;99398.84;;;6.84;54.08
49759;BME280;35654;46.080;11.118;2023-04-07T05:27:37;99407.81;;;6.90;53.82
49759;BME280;35654;46.080;11.118;2023-04-07T05:30:04;99403.72;;;6.77;54.45
49759;BME280;35654;46.080;11.118;2023-04-07T05:32:30;99399.66;;;6.80;54.02
49759;BME280;35654;46.080;11.118;2023-04-07T05:34:57;99402.63;;;6.73;53.87
49759;BME280;35654;46.080;11.118;2023-04-07T05:37:24;99407.56;;;6.86;51.70
49759;BME280;35654;46.080;11.118;2023-04-07T05:39:50;99407.81;;;6.90;52.04
49759;BME280;35654;46.080;11.118;2023-04-07T05:42:16;99405.66;;;7.02;52.08
49759;BME280;35654;46.080;11.118;2023-04-07T05:44:43;99407.31;;;7.08;52.14
49759;BME280;35654;46.080;11.118;2023-04-07T05:47:09;99405.38;;;7.03;53.14
49759;BME280;35654;46.080;11.118;2023-04-07T05:49:36;99411.41;;;7.06;53.27
49759;BME280;35654;46.080;11.118;2023-04-07T05:52:03;99410.84;;;7.14;53.50
49759;BME280;35654;46.080;11.118;2023-04-07T05:54:31;99406.78;;;7.16;53.57
49759;BME280;35654;46.080;11.118;2023-04-07T05:56:57;99407.59;;;7.22;53.22
49759;BME280;35654;46.080;11.118;2023-04-07T05:59:23;99406.22;;;7.29;53.15
49759;BME280;35654;46.080;11.118;2023-04-07T06:01:49;99396.41;;;7.38;53.17
49759;BME280;35654;46.080;11.118;2023-04-07T06:04:15;99401.84;;;7.43;53.12
49759;BME280;35654;46.080;11.118;2023-04-07T06:06:42;99402.94;;;7.52;52.67
49759;BME280;35654;46.080;11.118;2023-04-07T06:09:08;99407.03;;;7.60;52.18
49759;BME280;35654;46.080;11.118;2023-04-07T06:11:34;99397.47;;;7.62;51.97
49759;BME280;35654;46.080;11.118;2023-04-07T06:14:02;99400.50;;;7.61;51.93
49759;BME280;35654;46.080;11.118;2023-04-07T06:16:28;99406.75;;;7.61;51.82
49759;BME280;35654;46.080;11.118;2023-04-07T06:18:54;99399.38;;;7.72;51.70
49759;BME280;35654;46.080;11.118;2023-04-07T06:21:21;99407.53;;;7.77;51.56
49759;BME280;35654;46.080;11.118;2023-04-07T06:23:46;99407.78;;;7.91;51.50
49759;BME280;35654;46.080;11.118;2023-04-07T06:26:11;99406.94;;;8.00;50.99
49759;BME280;35654;46.080;11.118;2023-04-07T06:28:37;99403.09;;;8.11;50.54
49759;BME280;35654;46.080;11.118;2023-04-07T06:31:02;99403.88;;;8.27;49.90
49759;BME280;35654;46.080;11.118;2023-04-07T06:33:27;99395.13;;;8.30;49.38
49759;BME280;35654;46.080;11.118;2023-04-07T06:35:53;99401.97;;;8.28;49.16
49759;BME280;35654;46.080;11.118;2023-04-07T06:38:18;99394.31;;;8.30;49.05
49759;BME280;35654;46.080;11.118;2023-04-07T06:40:43;99389.38;;;8.27;49.23
49759;BME280;35654;46.080;11.118;2023-04-07T06:43:09;99384.50;;;8.34;48.41
49759;BME280;35654;46.080;11.118;2023-04-07T06:45:34;99385.25;;;8.44;47.88
49759;BME280;35654;46.080;11.118;2023-04-07T06:47:59;99379.75;;;8.49;47.99
49759;BME280;35654;46.080;11.118;2023-04-07T06:50:24;99384.63;;;8.57;46.85
49759;BME280;35654;46.080;11.118;2023-04-07T06:52:50;99378.59;;;8.60;47.13
49759;BME280;35654;46.080;11.118;2023-04-07T06:55:15;99375.50;;;8.82;47.12
49759;BME280;35654;46.080;11.118;2023-04-07T06:57:40;99373.16;;;9.04;46.26
49759;BME280;35654;46.080;11.118;2023-04-07T07:00:06;99372.97;;;9.24;44.01
49759;BME280;35654;46.080;11.118;2023-04-07T07:02:32;99378.13;;;9.31;43.99
49759;BME280;35654;46.080;11.118;2023-04-07T07:04:57;99375.06;;;9.32;44.11
49759;BME280;35654;46.080;11.118;2023-04-07T07:07:22;99371.06;;;9.25;44.27
49759;BME280;35654;46.080;11.118;2023-04-07T07:09:49;99368.56;;;9.28;44.61
49759;BME280;35654;46.080;11.118;2023-04-07T07:12:15;99353.84;;;9.24;43.87
49759;BME280;35654;46.080;11.118;2023-04-07T07:14:41;99356.06;;;9.22;43.97
49759;BME280;35654;46.080;11.118;2023-04-07T07:17:07;99351.88;;;9.30;43.62
49759;BME280;35654;46.080;11.118;2023-04-07T07:19:32;99348.13;;;9.55;43.44
49759;BME280;35654;46.080;11.118;2023-04-07T07:21:57;99347.28;;;9.54;43.40
49759;BME280;35654;46.080;11.118;2023-04-07T07:24:23;99339.88;;;9.60;43.65
49759;BME280;35654;46.080;11.118;2023-04-07T07:26:48;99342.84;;;9.87;43.39
49759;BME280;35654;46.080;11.118;2023-04-07T07:29:13;99333.06;;;9.81;42.62
49759;BME280;35654;46.080;11.118;2023-04-07T07:31:38;99337.53;;;9.95;42.21
49759;BME280;35654;46.080;11.118;2023-04-07T07:34:05;99339.41;;;10.00;41.86
49759;BME280;35654;46.080;11.118;2023-04-07T07:36:30;99334.59;;;10.11;41.74
49759;BME280;35654;46.080;11.118;2023-04-07T07:38:56;99343.19;;;10.28;41.52
49759;BME280;35654;46.080;11.118;2023-04-07T07:41:21;99336.84;;;10.32;40.30
49759;BME280;35654;46.080;11.118;2023-04-07T07:43:46;99331.38;;;10.51;39.63
49759;BME280;35654;46.080;11.118;2023-04-07T07:46:12;99319.59;;;10.69;39.42
49759;BME280;35654;46.080;11.118;2023-04-07T07:48:37;99322.13;;;10.66;40.05
49759;BME280;35654;46.080;11.118;2023-04-07T07:51:02;99320.28;;;10.80;39.44
49759;BME280;35654;46.080;11.118;2023-04-07T07:53:27;99312.78;;;10.67;39.07
49759;BME280;35654;46.080;11.118;2023-04-07T07:55:53;99319.25;;;10.57;38.77
49759;BME280;35654;46.080;11.118;2023-04-07T07:58:20;99317.47;;;10.66;39.31
49759;BME280;35654;46.080;11.118;2023-04-07T08:00:45;99314.56;;;10.76;39.17
49759;BME280;35654;46.080;11.118;2023-04-07T08:03:10;99312.25;;;10.83;39.04
49759;BME280;35654;46.080;11.118;2023-04-07T08:05:36;99305.72;;;10.98;37.93
49759;BME280;35654;46.080;11.118;2023-04-07T08:08:01;99301.28;;;11.02;38.18
49759;BME280;35654;46.080;11.118;2023-04-07T08:10:27;99300.47;;;11.01;37.93
49759;BME280;35654;46.080;11.118;2023-04-07T08:12:52;99302.69;;;11.32;37.60
49759;BME280;35654;46.080;11.118;2023-04-07T08:15:17;99298.94;;;11.28;37.89
49759;BME280;35654;46.080;11.118;2023-04-07T08:17:42;99297.44;;;11.49;37.61
49759;BME280;35654;46.080;11.118;2023-04-07T08:20:08;99293.75;;;11.72;37.18
49759;BME280;35654;46.080;11.118;2023-04-07T08:22:35;99286.13;;;11.83;36.64
49759;BME280;35654;46.080;11.118;2023-04-07T08:25:00;99280.31;;;11.84;34.09
49759;BME280;35654;46.080;11.118;2023-04-07T08:27:26;99279.22;;;11.85;34.84
49759;BME280;35654;46.080;11.118;2023-04-07T08:29:58;99287.06;;;11.92;34.94
49759;BME280;35654;46.080;11.118;2023-04-07T08:32:23;99284.47;;;12.09;34.79
49759;BME280;35654;46.080;11.118;2023-04-07T08:34:48;99275.03;;;12.01;33.58
49759;BME280;35654;46.080;11.118;2023-04-07T08:37:14;99272.28;;;12.15;32.93
49759;BME280;35654;46.080;11.118;2023-04-07T08:39:39;99270.75;;;12.09;32.87
49759;BME280;35654;46.080;11.118;2023-04-07T08:42:05;99271.13;;;12.30;33.18
49759;BME280;35654;46.080;11.118;2023-04-07T08:44:31;99269.53;;;12.15;33.52
49759;BME280;35654;46.080;11.118;2023-04-07T08:46:56;99261.47;;;12.32;32.44
49759;BME280;35654;46.080;11.118;2023-04-07T08:49:23;99257.72;;;12.28;32.52
49759;BME280;35654;46.080;11.118;2023-04-07T08:51:51;99257.38;;;12.65;32.39
49759;BME280;35654;46.080;11.118;2023-04-07T08:54:18;99253.59;;;12.97;31.56
49759;BME280;35654;46.080;11.118;2023-04-07T08:56:45;99251.94;;;13.40;31.64
49759;BME280;35654;46.080;11.118;2023-04-07T08:59:11;99251.13;;;13.79;31.28
49759;BME280;35654;46.080;11.118;2023-04-07T09:01:37;99241.28;;;13.87;30.26
49759;BME280;35654;46.080;11.118;2023-04-07T09:04:03;99240.66;;;13.98;30.24
49759;BME280;35654;46.080;11.118;2023-04-07T09:06:32;99238.81;;;14.33;29.67
49759;BME280;35654;46.080;11.118;2023-04-07T09:08:58;99229.84;;;14.19;28.28
49759;BME280;35654;46.080;11.118;2023-04-07T09:11:24;99229.44;;;14.43;28.09
49759;BME280;35654;46.080;11.118;2023-04-07T09:13:50;99222.84;;;15.07;27.96
49759;BME280;35654;46.080;11.118;2023-04-07T09:16:15;99216.66;;;15.28;27.47
49759;BME280;35654;46.080;11.118;2023-04-07T09:18:41;99212.72;;;15.37;26.72
49759;BME280;35654;46.080;11.118;2023-04-07T09:21:06;99214.66;;;14.82;26.84
49759;BME280;35654;46.080;11.118;2023-04-07T09:23:36;99207.34;;;14.69;27.60
49759;BME280;35654;46.080;11.118;2023-04-07T09:28:41;99190.56;;;15.92;26.24
49759;BME280;35654;46.080;11.118;2023-04-07T09:31:07;99183.72;;;16.40;25.70
49759;BME280;35654;46.080;11.118;2023-04-07T09:33:32;99178.78;;;16.04;26.17
49759;BME280;35654;46.080;11.118;2023-04-07T09:35:58;99173.19;;;15.92;26.31
49759;BME280;35654;46.080;11.118;2023-04-07T09:38:23;99169.56;;;16.00;25.80
49759;BME280;35654;46.080;11.118;2023-04-07T09:41:04;99173.75;;;15.47;27.03
49759;BME280;35654;46.080;11.118;2023-04-07T09:43:29;99169.41;;;15.38;27.35
49759;BME280;35654;46.080;11.118;2023-04-07T09:46:05;99166.94;;;14.98;27.44
49759;BME280;35654;46.080;11.118;2023-04-07T09:48:30;99162.44;;;15.32;26.84
49759;BME280;35654;46.080;11.118;2023-04-07T09:51:03;99162.06;;;15.04;26.74
49759;BME280;35654;46.080;11.118;2023-04-07T09:53:48;99162.59;;;14.80;26.88
49759;BME280;35654;46.080;11.118;2023-04-07T09:56:14;99158.34;;;14.91;27.03
49759;BME280;35654;46.080;11.118;2023-04-07T09:58:40;99155.09;;;14.98;26.82
49759;BME280;35654;46.080;11.118;2023-04-07T10:01:07;99151.38;;;14.94;27.10
49759;BME280;35654;46.080;11.118;2023-04-07T10:03:36;99142.47;;;15.35;26.51
49759;BME280;35654;46.080;11.118;2023-04-07T10:06:02;99133.03;;;15.73;25.84
49759;BME280;35654;46.080;11.118;2023-04-07T10:08:28;99136.13;;;15.72;25.86
49759;BME280;35654;46.080;11.118;2023-04-07T10:10:55;99134.00;;;15.98;25.52
49759;BME280;35654;46.080;11.118;2023-04-07T10:13:21;99114.78;;;16.22;25.13
49759;BME280;35654;46.080;11.118;2023-04-07T10:15:47;99121.34;;;16.71;24.72
49759;BME280;35654;46.080;11.118;2023-04-07T10:18:13;99116.34;;;16.85;24.20
49759;BME280;35654;46.080;11.118;2023-04-07T10:20:39;99120.97;;;17.18;24.35
49759;BME280;35654;46.080;11.118;2023-04-07T10:23:12;99112.56;;;17.26;23.00
49759;BME280;35654;46.080;11.118;2023-04-07T10:25:40;99110.16;;;17.49;23.00
49759;BME280;35654;46.080;11.118;2023-04-07T10:28:07;99116.31;;;17.67;23.09
49759;BME280;35654;46.080;11.118;2023-04-07T10:30:33;99106.81;;;17.43;21.36
49759;BME280;35654;46.080;11.118;2023-04-07T10:32:59;99098.25;;;17.97;21.77
49759;BME280;35654;46.080;11.118;2023-04-07T10:35:25;99098.56;;;17.95;22.14
49759;BME280;35654;46.080;11.118;2023-04-07T10:40:31;99081.22;;;18.50;21.24
49759;BME280;35654;46.080;11.118;2023-04-07T10:42:56;99078.63;;;19.01;20.84
49759;BME280;35654;46.080;11.118;2023-04-07T10:48:10;99071.53;;;19.19;20.13
49759;BME280;35654;46.080;11.118;2023-04-07T10:50:36;99058.34;;;21.46;17.84
49759;BME280;35654;46.080;11.118;2023-04-07T10:53:11;99057.38;;;23.31;16.42
49759;BME280;35654;46.080;11.118;2023-04-07T11:03:21;99035.75;;;26.10;12.58
49759;BME280;35654;46.080;11.118;2023-04-07T11:05:47;99035.06;;;25.07;13.62
49759;BME280;35654;46.080;11.118;2023-04-07T11:08:12;99031.84;;;25.02;13.58
49759;BME280;35654;46.080;11.118;2023-04-07T11:10:38;99029.78;;;25.94;13.01
49759;BME280;35654;46.080;11.118;2023-04-07T11:13:04;99029.28;;;26.27;13.01
49759;BME280;35654;46.080;11.118;2023-04-07T11:15:30;99021.44;;;26.70;13.34
49759;BME280;35654;46.080;11.118;2023-04-07T11:18:05;99019.00;;;28.12;12.37
49759;BME280;35654;46.080;11.118;2023-04-07T11:23:27;99017.94;;;27.14;13.19
49759;BME280;35654;46.080;11.118;2023-04-07T11:25:54;99012.09;;;26.08;14.35
49759;BME280;35654;46.080;11.118;2023-04-07T11:28:23;99008.13;;;26.78;13.56
49759;BME280;35654;46.080;11.118;2023-04-07T11:30:50;99001.44;;;25.46;14.71
49759;BME280;35654;46.080;11.118;2023-04-07T11:33:16;98997.47;;;23.80;15.97
49759;BME280;35654;46.080;11.118;2023-04-07T11:38:17;99002.50;;;22.25;17.39
49759;BME280;35654;46.080;11.118;2023-04-07T11:40:42;98995.91;;;21.77;17.54
49759;BME280;35654;46.080;11.118;2023-04-07T11:45:42;98975.81;;;25.51;15.28
49759;BME280;35654;46.080;11.118;2023-04-07T11:48:29;98982.97;;;24.60;15.83
49759;BME280;35654;46.080;11.118;2023-04-07T11:50:54;98976.34;;;23.24;17.01
49759;BME280;35654;46.080;11.118;2023-04-07T11:53:31;98977.00;;;24.69;16.21
49759;BME280;35654;46.080;11.118;2023-04-07T11:56:04;98984.63;;;22.66;17.16
49759;BME280;35654;46.080;11.118;2023-04-07T11:58:30;98983.34;;;19.82;20.36
49759;BME280;35654;46.080;11.118;2023-04-07T12:00:56;98972.94;;;20.17;20.15
49759;BME280;35654;46.080;11.118;2023-04-07T12:03:21;98980.16;;;20.41;19.55
49759;BME280;35654;46.080;11.118;2023-04-07T12:05:47;98976.59;;;19.29;20.85
49759;BME280;35654;46.080;11.118;2023-04-07T12:08:13;98981.16;;;19.91;21.02
49759;BME280;35654;46.080;11.118;2023-04-07T12:10:38;98976.69;;;20.06;20.87
49759;BME280;35654;46.080;11.118;2023-04-07T12:13:05;98979.69;;;19.97;20.64
49759;BME280;35654;46.080;11.118;2023-04-07T12:15:31;98980.56;;;20.40;20.60
49759;BME280;35654;46.080;11.118;2023-04-07T12:17:56;98972.56;;;19.42;21.58
49759;BME280;35654;46.080;11.118;2023-04-07T12:20:21;98990.09;;;18.21;22.83
49759;BME280;35654;46.080;11.118;2023-04-07T12:22:46;98983.66;;;18.17;23.07
49759;BME280;35654;46.080;11.118;2023-04-07T12:25:12;98987.72;;;18.08;23.05
49759;BME280;35654;46.080;11.118;2023-04-07T12:27:37;98985.09;;;17.99;23.39
49759;BME280;35654;46.080;11.118;2023-04-07T12:30:02;98997.75;;;18.12;23.66
49759;BME280;35654;46.080;11.118;2023-04-07T12:32:28;98986.00;;;16.99;24.97
49759;BME280;35654;46.080;11.118;2023-04-07T12:34:53;98988.72;;;17.87;23.86
49759;BME280;35654;46.080;11.118;2023-04-07T12:37:18;98980.19;;;17.28;24.15
49759;BME280;35654;46.080;11.118;2023-04-07T12:39:44;98975.03;;;17.27;24.40
49759;BME280;35654;46.080;11.118;2023-04-07T12:42:09;98973.97;;;17.43;24.29
49759;BME280;35654;46.080;11.118;2023-04-07T12:44:36;98975.41;;;17.77;24.11
49759;BME280;35654;46.080;11.118;2023-04-07T12:47:01;98975.41;;;17.01;25.03
49759;BME280;35654;46.080;11.118;2023-04-07T12:49:26;98974.22;;;17.26;24.68
49759;BME280;35654;46.080;11.118;2023-04-07T12:51:51;98964.84;;;18.11;23.96
49759;BME280;35654;46.080;11.118;2023-04-07T12:54:17;98963.69;;;17.56;23.95
49759;BME280;35654;46.080;11.118;2023-04-07T12:56:42;98969.69;;;18.57;23.25
49759;BME280;35654;46.080;11.118;2023-04-07T12:59:07;98956.81;;;18.80;22.70
49759;BME280;35654;46.080;11.118;2023-04-07T13:01:33;98961.38;;;17.46;24.48
49759;BME280;35654;46.080;11.118;2023-04-07T13:03:59;98953.38;;;17.69;24.63
49759;BME280;35654;46.080;11.118;2023-04-07T13:06:24;98950.72;;;17.20;25.26
49759;BME280;35654;46.080;11.118;2023-04-07T13:08:50;98960.50;;;17.30;25.46
49759;BME280;35654;46.080;11.118;2023-04-07T13:11:15;98951.94;;;17.35;25.35
49759;BME280;35654;46.080;11.118;2023-04-07T13:13:40;98949.56;;;17.73;24.85
49759;BME280;35654;46.080;11.118;2023-04-07T13:16:06;98944.03;;;17.21;25.16
49759;BME280;35654;46.080;11.118;2023-04-07T13:18:31;98951.25;;;18.06;24.53
49759;BME280;35654;46.080;11.118;2023-04-07T13:20:57;98938.16;;;17.51;24.59
49759;BME280;35654;46.080;11.118;2023-04-07T13:23:23;98944.88;;;17.50;24.48
49759;BME280;35654;46.080;11.118;2023-04-07T13:25:48;98941.13;;;18.41;23.98
49759;BME280;35654;46.080;11.118;2023-04-07T13:28:13;98938.72;;;17.68;24.73
49759;BME280;35654;46.080;11.118;2023-04-07T13:30:42;98948.34;;;17.46;24.26